Time;durP1;ratioP1;P1;durP2;ratioP2;P2;SDS_P1;SDS_P2;PMS_P1;PMS_P2;Temp;Humidity;BMP_temperature;BMP_pressure;BME280_temperature;BME280_humidity;BME280_pressure;Samples;Min_cycle;Max_cycle;Signal;HPM_P1;HPM_P2
2024/02/08 00:01:11;;;;;;;17.85;13.68;;;;;;;11.57;100.00;98199.00;5092603;28;20032;-45
2024/02/08 00:03:36;;;;;;;58.20;50.92;;;;;;;11.62;100.00;98199.13;5093802;28;20103;-45
2024/02/08 00:06:02;;;;;;;14.90;11.70;;;;;;;11.68;100.00;98192.19;5092483;28;20424;-45
2024/02/08 00:08:28;;;;;;;50.25;44.80;;;;;;;11.77;100.00;98198.75;5093719;28;20032;-45
2024/02/08 00:10:54;;;;;;;29.60;26.50;;;;;;;11.72;100.00;98182.84;5093681;28;20024;-45
2024/02/08 00:13:20;;;;;;;12.63;10.23;;;;;;;11.72;100.00;98183.63;5093676;28;20020;-45
2024/02/08 00:15:46;;;;;;;17.35;12.07;;;;;;;11.72;100.00;98190.72;5093549;28;20055;-44
2024/02/08 00:18:12;;;;;;;46.65;40.35;;;;;;;11.76;100.00;98176.13;5093451;28;20051;-45
2024/02/08 00:20:37;;;;;;;44.88;40.05;;;;;;;11.82;100.00;98182.34;5075639;28;20111;-45
2024/02/08 00:23:03;;;;;;;14.90;10.05;;;;;;;11.82;100.00;98185.75;5093429;28;20034;-45
2024/02/08 00:25:30;;;;;;;403.17;360.17;;;;;;;11.86;100.00;98180.88;5092076;28;20016;-45
2024/02/08 00:27:56;;;;;;;117.43;99.18;;;;;;;11.88;100.00;98184.88;5093394;28;20115;-45
2024/02/08 00:30:22;;;;;;;45.75;39.00;;;;;;;11.88;100.00;98178.81;5091952;28;20048;-45
2024/02/08 00:32:48;;;;;;;15.15;13.48;;;;;;;11.87;100.00;98185.09;5093277;28;20394;-45
2024/02/08 00:35:18;;;;;;;28.67;25.58;;;;;;;11.88;100.00;98169.09;5093128;28;20034;-45
2024/02/08 00:37:49;;;;;;;27.88;16.98;;;;;;;11.96;100.00;98168.03;5091775;28;20085;-45
2024/02/08 00:40:17;;;;;;;13.55;7.68;;;;;;;11.99;100.00;98175.44;5093096;28;20063;-45
2024/02/08 00:42:45;;;;;;;21.17;10.82;;;;;;;12.08;100.00;98171.50;5108715;28;20032;-45
2024/02/08 00:45:21;;;;;;;42.42;37.90;;;;;;;12.11;100.00;98165.81;5093253;28;20031;-45
2024/02/08 00:47:50;;;;;;;16.00;11.60;;;;;;;12.18;100.00;98168.34;5092962;28;20482;-46
2024/02/08 00:50:16;;;;;;;41.17;37.17;;;;;;;12.25;100.00;98155.09;5092425;28;20036;-46
2024/02/08 00:52:42;;;;;;;19.65;13.25;;;;;;;12.30;100.00;98173.66;5074661;28;20105;-46
2024/02/08 00:55:10;;;;;;;10.40;5.53;;;;;;;12.26;100.00;98157.50;5092904;28;20044;-46
2024/02/08 00:57:36;;;;;;;14.20;8.48;;;;;;;12.26;100.00;98159.34;5092812;28;20032;-46
2024/02/08 01:00:02;;;;;;;12.82;6.22;;;;;;;12.24;100.00;98169.28;5092737;28;20086;-46
2024/02/08 01:02:28;;;;;;;13.02;4.28;;;;;;;12.22;100.00;98161.59;5092695;28;20027;-46
2024/02/08 01:04:55;;;;;;;11.57;4.40;;;;;;;12.21;100.00;98161.81;5092722;28;20118;-46
2024/02/08 01:07:21;;;;;;;6.53;3.20;;;;;;;12.25;100.00;98165.63;5107909;28;20024;-46
2024/02/08 01:09:47;;;;;;;7.85;3.13;;;;;;;12.33;100.00;98157.41;5091421;28;20031;-46
2024/02/08 01:12:13;;;;;;;5.10;2.20;;;;;;;12.39;100.00;98161.75;5092486;28;20031;-46
2024/02/08 01:14:38;;;;;;;17.58;12.05;;;;;;;12.51;100.00;98159.16;5108132;28;20505;-46
2024/02/08 01:17:04;;;;;;;7.60;3.67;;;;;;;12.51;100.00;98153.91;5091134;28;20073;-46
2024/02/08 01:19:31;;;;;;;5.75;3.38;;;;;;;12.50;100.00;98158.38;5092319;28;20024;-46
2024/02/08 01:21:57;;;;;;;8.57;4.95;;;;;;;12.58;100.00;98149.34;5091081;28;20119;-46
2024/02/08 01:24:24;;;;;;;6.95;3.47;;;;;;;12.67;100.00;98162.97;5091118;28;20024;-46
2024/02/08 01:26:51;;;;;;;12.82;9.00;;;;;;;12.74;100.00;98163.69;5108022;28;20062;-46
2024/02/08 01:29:18;;;;;;;15.90;13.05;;;;;;;12.75;100.00;98168.72;5107983;28;20032;-46
2024/02/08 01:31:44;;;;;;;6.28;2.88;;;;;;;12.81;100.00;98161.72;5092234;28;20138;-46
2024/02/08 01:34:10;;;;;;;31.00;28.13;;;;;;;12.63;100.00;98167.88;5092207;28;20111;-46
2024/02/08 01:36:41;;;;;;;9.77;6.75;;;;;;;12.50;100.00;98158.38;5090782;28;20031;-46
2024/02/08 01:39:12;;;;;;;39.92;35.97;;;;;;;12.37;100.00;98166.44;5090941;28;20027;-45
2024/02/08 01:41:40;;;;;;;17.65;14.57;;;;;;;12.23;100.00;98163.19;5092000;28;20092;-45
2024/02/08 01:44:07;;;;;;;12.85;9.65;;;;;;;12.09;100.00;98159.16;5091973;28;20027;-45
2024/02/08 01:46:40;;;;;;;15.02;7.30;;;;;;;11.85;100.00;98152.94;5091958;28;20024;-44
2024/02/08 01:49:08;;;;;;;11.57;5.75;;;;;;;11.77;100.00;98151.41;5091968;28;20040;-45
2024/02/08 01:51:38;;;;;;;6.70;4.03;;;;;;;11.80;100.00;98154.41;5091954;28;20040;-44
2024/02/08 01:54:05;;;;;;;16.90;13.30;;;;;;;11.78;100.00;98150.41;5091906;28;20057;-44
2024/02/08 01:56:31;;;;;;;176.07;158.48;;;;;;;11.66;100.00;98154.81;5092132;28;20030;-45
2024/02/08 01:59:01;;;;;;;79.53;71.60;;;;;;;11.53;100.00;98147.88;5091778;28;20107;-45
2024/02/08 02:01:26;;;;;;;87.03;78.30;;;;;;;11.57;100.00;98143.81;5074046;28;20020;-45
2024/02/08 02:03:52;;;;;;;20.05;11.60;;;;;;;11.69;100.00;98143.84;5091881;28;20401;-45
2024/02/08 02:06:19;;;;;;;128.07;115.22;;;;;;;11.76;100.00;98136.69;5091758;28;20093;-45
2024/02/08 02:08:53;;;;;;;73.68;65.85;;;;;;;11.90;100.00;98142.63;5091778;28;20051;-45
2024/02/08 02:11:29;;;;;;;154.35;133.52;;;;;;;12.04;100.00;98138.00;5092005;28;20028;-45
2024/02/08 02:13:58;;;;;;;32.70;27.58;;;;;;;12.16;100.00;98126.47;5090482;28;20498;-45
2024/02/08 02:16:23;;;;;;;17.85;13.77;;;;;;;12.15;100.00;98129.31;5090502;28;20069;-45
2024/02/08 02:18:52;;;;;;;8.75;7.45;;;;;;;12.06;100.00;98125.41;5092950;28;20032;-46
2024/02/08 02:21:20;;;;;;;11.52;4.88;;;;;;;12.10;100.00;98116.06;5095775;28;20502;-46
2024/02/08 02:23:46;;;;;;;13.85;6.18;;;;;;;12.24;100.00;98114.84;5095777;28;20032;-46
2024/02/08 02:26:18;;;;;;;10.35;4.07;;;;;;;12.29;100.00;98108.88;5094518;28;20031;-46
2024/02/08 02:28:45;;;;;;;78.43;70.75;;;;;;;12.29;100.00;98114.16;5095548;28;20020;-46
2024/02/08 02:31:13;;;;;;;14.95;9.55;;;;;;;12.29;100.00;98112.31;5095635;28;20537;-46
2024/02/08 02:33:42;;;;;;;12.20;9.85;;;;;;;12.32;100.00;98109.25;5095533;28;20027;-46
2024/02/08 02:36:08;;;;;;;8.07;5.82;;;;;;;12.34;100.00;98106.41;5095577;28;20020;-46
2024/02/08 02:38:37;;;;;;;8.32;3.08;;;;;;;12.45;100.00;98104.81;5095397;28;20032;-46
2024/02/08 02:41:06;;;;;;;95.85;80.43;;;;;;;12.41;100.00;98099.19;5095440;28;20024;-46
2024/02/08 02:43:36;;;;;;;11.60;5.93;;;;;;;12.37;100.00;98100.66;5094114;28;20085;-46
2024/02/08 02:46:05;;;;;;;9.75;6.63;;;;;;;12.39;100.00;98099.44;5095334;28;20099;-46
2024/02/08 02:48:34;;;;;;;10.75;8.68;;;;;;;12.42;100.00;98092.13;5095277;28;20032;-46
2024/02/08 02:51:01;;;;;;;9.15;3.92;;;;;;;12.36;100.00;98091.97;5095065;28;20036;-46
2024/02/08 02:53:29;;;;;;;6.40;2.55;;;;;;;12.41;100.00;98090.50;5095143;28;20016;-46
2024/02/08 02:55:58;;;;;;;4.10;2.75;;;;;;;12.34;100.00;98091.41;5093935;28;20036;-46
2024/02/08 02:58:26;;;;;;;6.72;2.88;;;;;;;12.36;100.00;98083.28;5093762;28;20064;-46
2024/02/08 03:01:07;;;;;;;11.70;6.80;;;;;;;12.36;100.00;98089.34;5110732;28;20101;-46
2024/02/08 03:03:40;;;;;;;8.88;3.83;;;;;;;12.49;100.00;98085.69;5095070;28;20028;-46
2024/02/08 03:06:18;;;;;;;9.13;3.70;;;;;;;12.52;100.00;98077.34;5094018;28;20390;-47
2024/02/08 03:08:45;;;;;;;6.03;2.72;;;;;;;12.77;100.00;98076.31;5110681;28;20032;-46
2024/02/08 03:11:12;;;;;;;17.40;8.73;;;;;;;12.94;100.00;98079.09;5110548;28;20032;-46
2024/02/08 03:13:39;;;;;;;9.45;3.92;;;;;;;13.05;100.00;98069.56;5094867;28;20105;-46
2024/02/08 03:16:06;;;;;;;9.07;4.55;;;;;;;13.09;100.00;98068.84;5110470;28;20173;-46
2024/02/08 03:18:32;;;;;;;7.13;2.88;;;;;;;13.14;100.00;98061.06;5094637;28;20085;-46
2024/02/08 03:20:58;;;;;;;7.90;6.57;;;;;;;13.05;100.00;98059.81;5110351;28;20016;-46
2024/02/08 03:23:25;;;;;;;11.18;3.63;;;;;;;13.16;100.00;98060.84;5094683;28;20039;-46
2024/02/08 03:25:51;;;;;;;6.72;3.33;;;;;;;13.23;100.00;98056.22;5094496;28;20089;-46
2024/02/08 03:28:17;;;;;;;4.65;2.50;;;;;;;13.37;100.00;98051.53;5110232;28;20040;-46
2024/02/08 03:30:43;;;;;;;6.97;2.63;;;;;;;13.26;100.00;98055.78;5094132;28;20016;-46
2024/02/08 03:33:18;;;;;;;5.80;3.80;;;;;;;13.15;100.00;98052.13;5094511;28;20031;-46
2024/02/08 03:35:53;;;;;;;6.55;3.50;;;;;;;13.15;100.00;98046.06;5094442;28;20119;-46
2024/02/08 03:38:20;;;;;;;4.57;2.65;;;;;;;13.04;100.00;98047.69;5094332;28;20089;-46
2024/02/08 03:40:45;;;;;;;12.55;7.20;;;;;;;13.03;100.00;98053.97;5109975;28;20020;-47
2024/02/08 03:43:15;;;;;;;6.80;3.03;;;;;;;12.99;100.00;98055.47;5092980;28;20078;-46
2024/02/08 03:45:46;;;;;;;5.22;2.42;;;;;;;13.07;100.00;98051.69;5094299;28;20697;-46
2024/02/08 03:48:14;;;;;;;7.90;3.33;;;;;;;13.10;100.00;98049.41;5093103;28;20498;-46
2024/02/08 03:50:40;;;;;;;10.68;3.20;;;;;;;13.10;100.00;98043.31;5093900;28;20123;-46
2024/02/08 03:53:17;;;;;;;7.03;3.10;;;;;;;13.08;100.00;98042.75;5094134;28;20085;-46
2024/02/08 03:55:44;;;;;;;5.10;3.60;;;;;;;13.14;100.00;98041.84;5093981;28;20060;-46
2024/02/08 03:58:13;;;;;;;7.80;3.25;;;;;;;13.05;100.00;98048.47;5093837;28;20020;-46
2024/02/08 04:00:42;;;;;;;5.35;2.55;;;;;;;12.95;100.00;98041.97;5093846;28;20024;-46
2024/02/08 04:03:13;;;;;;;6.90;3.00;;;;;;;12.92;100.00;98037.16;5092693;28;20031;-46
2024/02/08 04:54:42;;;;;;;6.63;3.50;;;;;;;13.88;100.00;98004.97;5093217;28;20070;-46
2024/02/08 04:57:09;;;;;;;8.52;3.30;;;;;;;13.92;100.00;98000.88;5091557;28;20059;-46
2024/02/08 04:59:44;;;;;;;7.93;5.57;;;;;;;13.89;100.00;98001.31;5108380;28;20031;-46
2024/02/08 05:02:11;;;;;;;5.03;2.95;;;;;;;13.75;100.00;97998.19;5092731;28;20535;-46
2024/02/08 05:04:37;;;;;;;9.98;4.68;;;;;;;13.73;100.00;97989.72;5092782;28;20032;-46
2024/02/08 05:07:06;;;;;;;5.80;3.70;;;;;;;13.75;100.00;97989.47;5091344;28;20363;-46
2024/02/08 05:09:32;;;;;;;7.50;2.67;;;;;;;13.83;100.00;97985.66;5108259;28;20044;-46
2024/02/08 05:11:59;;;;;;;6.45;2.65;;;;;;;13.83;100.00;97986.44;5092556;28;20077;-46
2024/02/08 05:14:28;;;;;;;4.65;2.30;;;;;;;13.96;100.00;97985.34;5074451;28;20077;-46
2024/02/08 05:16:56;;;;;;;9.10;2.10;;;;;;;14.09;100.00;97979.75;5092435;28;20024;-46
2024/02/08 05:19:26;;;;;;;11.63;2.40;;;;;;;14.26;100.00;97982.38;5092293;28;20031;-46
2024/02/08 05:21:54;;;;;;;4.00;2.15;;;;;;;14.26;100.00;97987.66;5092383;28;20028;-46
2024/02/08 05:24:20;;;;;;;5.03;1.80;;;;;;;14.06;100.00;97979.41;5092409;28;20016;-46
2024/02/08 05:26:46;;;;;;;5.85;2.90;;;;;;;14.00;100.00;97978.53;5091023;28;20126;-46
2024/02/08 05:29:19;;;;;;;3.65;2.08;;;;;;;13.87;100.00;97986.78;5092313;28;20054;-46
2024/02/08 05:31:49;;;;;;;7.57;2.45;;;;;;;13.83;100.00;97986.44;5092488;28;20405;-46
2024/02/08 05:34:16;;;;;;;6.85;4.43;;;;;;;13.78;100.00;97975.81;5092249;28;20588;-46
2024/02/08 05:36:43;;;;;;;9.35;3.67;;;;;;;13.82;100.00;97976.94;5092117;28;20031;-46
2024/02/08 05:39:10;;;;;;;5.90;2.50;;;;;;;13.87;100.00;97981.50;5092106;28;20474;-46
2024/02/08 05:41:36;;;;;;;7.07;3.13;;;;;;;13.94;100.00;97987.41;5090907;28;20024;-46
2024/02/08 05:44:05;;;;;;;7.32;3.30;;;;;;;13.92;100.00;97981.56;5092055;28;20474;-46
2024/02/08 05:46:40;;;;;;;6.10;3.35;;;;;;;13.75;100.00;97987.63;5090749;28;20039;-47
2024/02/08 05:49:13;;;;;;;8.25;5.05;;;;;;;13.70;100.00;97995.47;5091857;28;20042;-47
2024/02/08 05:51:56;;;;;;;6.28;3.20;;;;;;;13.68;100.00;97989.63;5092003;28;20054;-46
2024/02/08 05:54:31;;;;;;;20.48;18.33;;;;;;;13.73;100.00;97986.28;5091965;28;20391;-46
2024/02/08 05:57:02;;;;;;;7.32;5.25;;;;;;;13.81;100.00;97985.88;5091960;28;20482;-46
2024/02/08 05:59:29;;;;;;;11.95;4.45;;;;;;;13.93;100.00;97991.91;5091836;28;20028;-46
2024/02/08 06:01:58;;;;;;;10.40;3.72;;;;;;;14.10;100.00;97994.53;5091793;28;20023;-46
2024/02/08 06:04:25;;;;;;;9.30;3.30;;;;;;;14.23;100.00;98005.81;5091766;28;20027;-46
2024/02/08 06:07:07;;;;;;;6.28;3.00;;;;;;;14.31;100.00;97990.38;5091782;28;20032;-47
2024/02/08 06:15:14;;;;;;;11.73;3.22;;;;;;;14.45;100.00;97987.41;5091052;28;20038;-46
2024/02/08 06:17:45;;;;;;;8.40;3.05;;;;;;;14.49;100.00;97999.88;5091748;28;20032;-46
2024/02/08 06:20:14;;;;;;;5.80;3.20;;;;;;;14.31;100.00;98000.94;5091647;28;20024;-47
2024/02/08 06:22:43;;;;;;;7.68;3.22;;;;;;;14.18;100.00;98011.81;5091942;28;20426;-47
2024/02/08 06:25:26;;;;;;;7.45;3.35;;;;;;;14.05;100.00;98017.41;5090499;28;20101;-46
2024/02/08 06:27:56;;;;;;;7.28;3.38;;;;;;;13.89;100.00;98016.34;5091732;28;20055;-46
2024/02/08 06:30:25;;;;;;;12.02;10.00;;;;;;;13.65;100.00;98015.69;5091630;28;20024;-46
2024/02/08 06:33:07;;;;;;;9.65;4.10;;;;;;;13.45;100.00;98019.53;5091631;28;20020;-46
2024/02/08 06:35:36;;;;;;;5.22;4.05;;;;;;;13.34;100.00;98037.00;5091853;28;20024;-46
2024/02/08 06:38:08;;;;;;;14.75;7.13;;;;;;;13.31;100.00;98045.34;5090282;28;20409;-46
2024/02/08 06:40:37;;;;;;;18.95;7.13;;;;;;;13.07;100.00;98054.31;5091407;28;20028;-46
2024/02/08 07:37:53;;;;;;;7.53;3.25;;;;;;;12.03;100.00;98025.91;5094494;28;20516;-44
2024/02/08 07:40:25;;;;;;;6.53;3.45;;;;;;;12.05;100.00;98029.91;5093111;28;20024;-45
2024/02/08 07:42:52;;;;;;;10.27;4.15;;;;;;;12.12;100.00;98041.16;5094321;28;20024;-45
2024/02/08 07:45:26;;;;;;;8.38;3.10;;;;;;;12.30;100.00;98037.63;5094139;28;20016;-45
2024/02/08 07:48:08;;;;;;;9.68;3.75;;;;;;;12.42;100.00;98037.66;5094232;28;20035;-45
2024/02/08 07:50:44;;;;;;;7.60;3.08;;;;;;;12.73;100.00;98043.59;5093863;28;20076;-46
2024/02/08 07:53:19;;;;;;;19.85;4.10;;;;;;;12.76;100.00;98041.31;5094197;28;20066;-46
2024/02/08 07:56:19;;;;;;;8.57;4.15;;;;;;;12.95;100.00;98039.31;5094051;28;20032;-46
2024/02/08 07:58:48;;;;;;;36.35;32.20;;;;;;;13.07;100.00;98044.56;5093810;28;20150;-46
2024/02/08 08:01:17;;;;;;;13.52;10.32;;;;;;;13.07;100.00;98041.94;5093874;28;20477;-46
2024/02/08 08:03:45;;;;;;;151.80;137.43;;;;;;;13.15;100.00;98046.06;5093918;28;20024;-46
2024/02/08 08:06:15;;;;;;;31.42;27.02;;;;;;;13.21;100.00;98050.41;5093812;28;20402;-46
2024/02/08 08:08:54;;;;;;;14.88;4.95;;;;;;;13.16;100.00;98047.66;5093814;28;20028;-46
2024/02/08 08:11:25;;;;;;;11.50;3.80;;;;;;;13.12;100.00;98043.88;5093742;28;20039;-46
2024/02/08 08:19:08;;;;;;;14.35;9.60;;;;;;;13.11;100.00;98050.19;5093632;28;20031;-46
2024/02/08 08:24:27;;;;;;;21.42;13.55;;;;;;;13.41;100.00;98052.66;5093562;28;20027;-46
2024/02/08 08:27:47;;;;;;;15.18;6.95;;;;;;;13.53;100.00;98050.78;5093472;28;20024;-46
2024/02/08 08:29:43;;;;;;;13.38;4.82;;;;;;;13.62;100.00;98048.56;5092817;28;20040;-46
2024/02/08 08:37:45;;;;;;;19.38;6.20;;;;;;;13.56;100.00;98049.50;5093635;28;20475;-46
2024/02/08 08:40:21;;;;;;;10.27;6.13;;;;;;;13.65;100.00;98048.09;5092007;28;20027;-46
2024/02/08 08:42:50;;;;;;;14.48;7.25;;;;;;;13.73;100.00;98037.19;5093226;28;20085;-46
2024/02/08 08:45:18;;;;;;;5.78;3.80;;;;;;;13.83;100.00;98035.78;5108778;28;20030;-48
2024/02/08 08:47:44;;;;;;;9.07;3.17;;;;;;;13.79;100.00;98038.88;5108713;28;20089;-48
2024/02/08 08:50:19;;;;;;;9.20;3.58;;;;;;;13.99;100.00;98027.88;5092765;28;20101;-48
2024/02/08 08:52:57;;;;;;;9.88;3.40;;;;;;;14.25;100.00;98032.78;5093072;28;20067;-48
2024/02/08 08:55:23;;;;;;;6.05;3.05;;;;;;;14.39;100.00;98034.06;5092926;28;20043;-48
2024/02/08 08:58:00;;;;;;;9.50;3.13;;;;;;;14.49;100.00;98028.13;5092843;28;20020;-48
2024/02/08 09:00:36;;;;;;;6.35;3.15;;;;;;;14.65;100.00;98029.16;5092753;28;20032;-48
2024/02/08 09:03:10;;;;;;;11.02;3.50;;;;;;;14.68;100.00;98020.75;5092786;28;20078;-48
2024/02/08 09:05:36;;;;;;;8.10;2.97;;;;;;;14.81;100.00;98023.06;5091489;28;20035;-48
2024/02/08 09:08:21;;;;;;;12.82;5.38;;;;;;;15.10;100.00;98020.25;5108282;28;20035;-48
2024/02/08 09:10:49;;;;;;;8.20;3.65;;;;;;;15.21;100.00;98015.88;5092736;28;20034;-48
2024/02/08 09:13:18;;;;;;;13.02;5.63;;;;;;;15.20;100.00;98009.78;5092515;28;20028;-48
2024/02/08 09:16:29;;;;;;;8.10;3.88;;;;;;;15.26;100.00;98008.81;5092480;28;20107;-48
2024/02/08 09:21:32;;;;;;;7.28;3.22;;;;;;;15.66;100.00;97990.97;5092432;28;20028;-48
2024/02/08 09:24:17;;;;;;;7.75;2.88;;;;;;;15.85;100.00;97984.28;5092433;28;20028;-48
2024/02/08 09:27:00;;;;;;;5.93;2.03;;;;;;;16.08;100.00;97975.22;5092373;28;20104;-48
2024/02/08 09:29:26;;;;;;;7.35;2.58;;;;;;;16.22;100.00;97975.59;5092178;28;20028;-48
2024/02/08 09:32:14;;;;;;;5.60;2.45;;;;;;;16.35;100.00;97980.44;5092196;28;20030;-49
2024/02/08 09:34:40;;;;;;;16.52;13.68;;;;;;;16.41;100.00;97970.66;5092220;28;20057;-49
2024/02/08 09:37:10;;;;;;;14.50;3.65;;;;;;;16.28;100.00;97966.63;5073920;28;20024;-48
2024/02/08 09:39:53;;;;;;;7.07;2.70;;;;;;;15.93;100.00;97967.16;5090684;28;20505;-49
2024/02/08 09:42:37;;;;;;;7.93;2.28;;;;;;;15.99;100.00;97950.25;5092352;28;20107;-48
2024/02/08 09:45:18;;;;;;;31.55;23.90;;;;;;;16.05;100.00;97951.91;5107976;28;20038;-48
2024/02/08 09:47:54;;;;;;;7.13;5.38;;;;;;;16.03;100.00;97940.75;5091957;28;20024;-48
2024/02/08 09:50:36;;;;;;;9.70;5.35;;;;;;;16.07;100.00;97935.75;5090609;28;20071;-49
2024/02/08 09:53:27;;;;;;;9.13;3.85;;;;;;;16.12;100.00;97927.88;5091310;28;20165;-48
2024/02/08 09:55:56;;;;;;;5.20;3.22;;;;;;;16.41;100.00;97930.16;5091890;28;20032;-49
2024/02/08 09:59:40;;;;;;;10.32;2.72;;;;;;;16.65;100.00;97912.78;5107349;28;20024;-49
2024/02/08 10:01:24;;;;;;;7.93;3.50;;;;;;;16.77;100.00;97915.22;5091043;28;20070;-49
2024/02/08 10:03:51;;;;;;;6.75;2.00;;;;;;;16.82;100.00;97911.81;5091847;28;20039;-49
2024/02/08 10:06:38;;;;;;;8.13;2.63;;;;;;;16.84;100.00;97925.59;5091723;28;20043;-48
2024/02/08 10:09:34;;;;;;;5.63;2.40;;;;;;;16.91;100.00;97923.53;5091823;28;20031;-48
2024/02/08 10:11:58;;;;;;;7.97;2.08;;;;;;;16.79;100.00;97910.47;5091570;28;20071;-48
2024/02/08 10:14:32;;;;;;;7.32;2.17;;;;;;;16.67;100.00;97907.22;5091956;28;20024;-49
2024/02/08 10:17:24;;;;;;;4.13;2.13;;;;;;;16.64;100.00;97899.78;5091791;28;20481;-49
2024/02/08 10:22:56;;;;;;;11.10;3.17;;;;;;;16.88;100.00;97895.69;5092252;28;20107;-48
2024/02/08 10:28:23;;;;;;;7.85;2.40;;;;;;;17.24;100.00;97901.06;5091677;28;20097;-49
2024/02/08 10:30:59;;;;;;;5.13;2.65;;;;;;;17.34;100.00;97894.97;5091963;28;20020;-49
2024/02/08 10:33:35;;;;;;;7.10;2.45;;;;;;;17.41;100.00;97887.56;5091538;28;20032;-49
2024/02/08 10:36:15;;;;;;;7.20;2.90;;;;;;;17.52;100.00;97893.66;5090508;28;20138;-49
2024/02/08 10:38:56;;;;;;;5.90;1.80;;;;;;;17.98;100.00;97888.34;5090458;28;20035;-49
2024/02/08 10:41:44;;;;;;;5.70;2.25;;;;;;;18.23;100.00;97890.19;5095307;28;20032;-48
2024/02/08 10:44:22;;;;;;;4.03;1.98;;;;;;;18.33;100.00;97879.53;5095511;28;20089;-49
2024/02/08 10:46:55;;;;;;;4.13;1.80;;;;;;;18.42;100.00;97874.44;5078838;28;20036;-46
2024/02/08 10:49:25;;;;;;;5.80;1.98;;;;;;;18.35;100.00;97879.22;5095196;28;20032;-47
2024/02/08 10:52:00;;;;;;;5.28;2.00;;;;;;;18.55;100.00;97865.91;5095148;28;20118;-46
2024/02/08 10:54:42;;;;;;;11.75;2.75;;;;;;;18.74;100.00;97868.72;5095327;28;20020;-46
2024/02/08 10:57:39;;;;;;;23.83;3.60;;;;;;;19.00;100.00;97863.31;5095241;28;20110;-46
2024/02/08 10:59:58;;;;;;;8.77;2.63;;;;;;;19.48;100.00;97857.41;5094976;28;20031;-46
2024/02/08 11:02:48;;;;;;;9.55;2.03;;;;;;;19.82;100.00;97852.06;5094976;28;20025;-46
2024/02/08 11:05:30;;;;;;;10.05;2.78;;;;;;;20.32;100.00;97833.13;5095107;28;20115;-46
2024/02/08 11:07:59;;;;;;;10.57;2.17;;;;;;;20.77;100.00;97827.56;5095294;28;20024;-47
2024/02/08 11:10:31;;;;;;;16.33;4.00;;;;;;;20.99;100.00;97810.94;5093523;28;20484;-46
2024/02/08 11:13:10;;;;;;;6.28;2.42;;;;;;;20.99;90.68;97802.94;5094846;28;20106;-47
2024/02/08 11:15:49;;;;;;;7.22;2.30;;;;;;;21.58;100.00;97787.34;5094857;28;20055;-47
2024/02/08 11:18:35;;;;;;;5.72;1.95;;;;;;;22.73;100.00;97791.75;5094856;28;20088;-47
2024/02/08 11:21:12;;;;;;;7.15;1.70;;;;;;;23.41;94.26;97787.25;5094804;28;20028;-47
2024/02/08 11:23:45;;;;;;;4.38;1.63;;;;;;;24.10;85.41;97765.31;5094681;28;20055;-47
2024/02/08 11:26:12;;;;;;;5.60;1.95;;;;;;;24.50;85.23;97757.22;5094698;28;20030;-47
2024/02/08 11:28:48;;;;;;;2.60;1.55;;;;;;;25.02;78.80;97740.31;5094586;28;20118;-47
2024/02/08 11:31:17;;;;;;;2.40;1.50;;;;;;;25.01;77.38;97728.03;5093406;28;20035;-47
2024/02/08 11:33:44;;;;;;;3.95;1.95;;;;;;;25.17;82.72;97724.81;5094448;28;20031;-47
2024/02/08 11:36:12;;;;;;;3.50;1.55;;;;;;;25.41;75.24;97727.78;5110082;28;20024;-47
2024/02/08 11:38:46;;;;;;;3.83;1.63;;;;;;;25.35;74.87;97715.63;5094401;28;20064;-47
2024/02/08 11:41:20;;;;;;;5.35;1.70;;;;;;;25.50;76.75;97730.44;5094567;28;20036;-47
2024/02/08 11:44:05;;;;;;;4.95;1.80;;;;;;;25.66;76.20;97723.41;5094370;28;20101;-47
2024/02/08 11:46:45;;;;;;;2.30;1.20;;;;;;;25.94;73.11;97717.63;5094231;28;20031;-47
2024/02/08 11:49:14;;;;;;;7.47;2.90;;;;;;;26.06;77.52;97717.72;5093074;28;20081;-47
2024/02/08 11:51:48;;;;;;;7.38;1.73;;;;;;;26.31;76.70;97707.88;5109435;28;20071;-47
2024/02/08 11:54:30;;;;;;;10.43;2.47;;;;;;;26.75;74.90;97701.41;5094154;28;20028;-47
2024/02/08 11:56:58;;;;;;;4.00;2.05;;;;;;;26.89;79.01;97702.66;5094083;28;20024;-47
2024/02/08 11:59:25;;;;;;;5.05;2.72;;;;;;;27.25;77.25;97695.84;5093927;28;20058;-47
2024/02/08 12:01:53;;;;;;;8.57;2.47;;;;;;;27.52;82.23;97688.22;5109701;28;20110;-47
2024/02/08 12:04:22;;;;;;;8.43;2.40;;;;;;;28.02;82.49;97686.31;5093976;28;20035;-47
2024/02/08 12:06:49;;;;;;;6.93;3.15;;;;;;;28.30;80.61;97680.97;5093917;28;20020;-47
2024/02/08 12:09:31;;;;;;;12.02;2.60;;;;;;;28.24;80.77;97679.63;5094053;28;20035;-47
2024/02/08 12:11:58;;;;;;;5.72;2.38;;;;;;;28.13;80.96;97675.81;5093781;28;20059;-47
2024/02/08 12:14:27;;;;;;;8.43;2.47;;;;;;;27.86;80.42;97680.78;5093764;28;20032;-47
2024/02/08 12:16:59;;;;;;;5.05;1.98;;;;;;;27.27;69.39;97663.19;5093592;28;20020;-47
2024/02/08 12:19:30;;;;;;;2.33;1.23;;;;;;;27.21;73.46;97664.50;5092302;28;20032;-47
2024/02/08 12:22:03;;;;;;;2.55;1.42;;;;;;;27.04;71.79;97652.00;5092387;28;20111;-47
2024/02/08 12:24:34;;;;;;;1.70;1.10;;;;;;;26.41;66.41;97654.81;5093597;28;20103;-47
2024/02/08 12:27:12;;;;;;;1.60;1.10;;;;;;;26.05;71.14;97659.66;5093461;28;20032;-46
2024/02/08 12:29:42;;;;;;;2.75;1.20;;;;;;;26.25;70.93;97641.16;5093455;28;20024;-46
2024/02/08 12:32:16;;;;;;;3.83;1.45;;;;;;;25.90;62.71;97641.44;5093441;28;20114;-46
2024/02/08 12:34:43;;;;;;;2.17;1.00;;;;;;;25.35;66.74;97628.91;5093417;28;20036;-46
2024/02/08 12:37:12;;;;;;;4.93;1.55;;;;;;;24.64;68.75;97612.19;5091972;28;20036;-46
2024/02/08 12:39:44;;;;;;;8.32;2.38;;;;;;;23.79;61.26;97595.81;5093408;28;20024;-46
2024/02/08 12:42:13;;;;;;;3.13;1.60;;;;;;;23.27;66.33;97596.47;5093174;28;20455;-46
2024/02/08 12:44:48;;;;;;;6.53;3.55;;;;;;;23.06;66.94;97577.47;5093361;28;20099;-47
2024/02/08 12:47:17;;;;;;;6.22;3.00;;;;;;;22.91;64.10;97568.72;5093082;28;20028;-47
2024/02/08 12:49:53;;;;;;;3.42;2.40;;;;;;;22.57;68.05;97564.00;5092770;28;20039;-48
2024/02/08 12:52:20;;;;;;;5.32;1.88;;;;;;;22.21;65.74;97551.47;5093056;28;20059;-47
2024/02/08 12:54:55;;;;;;;18.23;11.07;;;;;;;21.78;63.83;97554.63;5093024;28;20062;-47
2024/02/08 12:57:23;;;;;;;;;;;;;;;22.01;55.72;97557.31;5091927;28;20028;-47
2024/02/08 13:00:02;;;;;;;6.97;3.35;;;;;;;21.94;65.83;97545.16;5092774;28;19947;-47
2024/02/08 13:02:33;;;;;;;5.90;2.40;;;;;;;22.00;74.19;97545.84;5090983;28;20063;-47
2024/02/08 13:05:01;;;;;;;5.68;2.72;;;;;;;22.24;76.01;97537.56;5092800;28;20023;-47
2024/02/08 13:07:27;;;;;;;4.18;2.33;;;;;;;22.39;69.50;97531.03;5091507;28;20020;-46
2024/02/08 13:10:04;;;;;;;3.33;2.28;;;;;;;22.36;68.78;97515.63;5092659;28;20032;-46
2024/02/08 13:12:30;;;;;;;3.22;1.67;;;;;;;22.18;68.21;97508.56;5092730;28;20032;-46
2024/02/08 13:15:02;;;;;;;4.50;1.95;;;;;;;21.97;67.58;97509.03;5092620;28;20078;-45
2024/02/08 13:17:32;;;;;;;5.05;2.33;;;;;;;21.71;69.28;97488.28;5092864;28;20032;-46
2024/02/08 13:20:11;;;;;;;4.53;1.90;;;;;;;21.58;70.44;97491.00;5092762;28;20042;-46
2024/02/08 13:22:44;;;;;;;13.80;10.32;;;;;;;21.14;64.19;97491.34;5092568;28;20107;-45
2024/02/08 13:25:13;;;;;;;6.82;3.63;;;;;;;20.69;66.94;97496.50;5092388;28;20024;-46
2024/02/08 13:27:44;;;;;;;7.88;4.47;;;;;;;20.52;68.55;97494.38;5092355;28;20020;-46
2024/02/08 13:30:17;;;;;;;5.55;3.03;;;;;;;20.82;72.24;97494.13;5092430;28;20020;-45
2024/02/08 13:32:45;;;;;;;8.35;2.90;;;;;;;20.99;71.40;97490.84;5092438;28;20062;-45
2024/02/08 13:35:20;;;;;;;4.68;3.65;;;;;;;21.34;75.02;97471.44;5090926;28;20597;-45
2024/02/08 13:37:50;;;;;;;6.00;2.05;;;;;;;21.52;70.63;97474.28;5092338;28;20042;-45
2024/02/08 13:40:19;;;;;;;5.63;1.95;;;;;;;21.83;70.06;97468.25;5092312;28;20028;-46
2024/02/08 13:42:47;;;;;;;3.38;2.00;;;;;;;21.97;69.64;97458.28;5092107;28;20020;-46
2024/02/08 13:45:14;;;;;;;3.47;2.25;;;;;;;21.81;70.84;97454.41;5091955;28;20063;-46
2024/02/08 13:47:53;;;;;;;5.15;2.30;;;;;;;21.78;68.14;97450.47;5090730;28;20024;-45
2024/02/08 13:50:19;;;;;;;4.88;2.33;;;;;;;22.04;70.71;97447.19;5091557;28;20040;-45
2024/02/08 13:52:48;;;;;;;6.00;2.42;;;;;;;22.14;71.38;97438.91;5092051;28;20055;-45